Time;durP1;ratioP1;P1;durP2;ratioP2;P2;SDS_P1;SDS_P2;PMS_P1;PMS_P2;Temp;Humidity;BMP_temperature;BMP_pressure;BME280_temperature;BME280_humidity;BME280_pressure;Samples;Min_cycle;Max_cycle;Signal;HPM_P1;HPM_P2
2022/03/04 00:01:23;;;;;;;11.02;6.68;;;;;;;7.32;70.12;101404.00;2069962;28;20046;-76
2022/03/04 00:02:45;;;;;;;10.05;4.93;;;;;;;7.32;70.08;101407.50;2061931;28;20113;-76
2022/03/04 00:04:09;;;;;;;8.35;4.20;;;;;;;7.34;70.11;101399.69;2067237;28;20050;-75
2022/03/04 00:05:30;;;;;;;10.77;4.80;;;;;;;7.35;70.26;101394.47;2067441;28;20435;-76
2022/03/04 00:06:54;;;;;;;8.75;4.32;;;;;;;7.38;70.12;101393.72;2061713;28;20039;-75
2022/03/04 00:08:17;;;;;;;9.45;5.05;;;;;;;7.38;70.18;101391.09;2061426;28;20046;-75
2022/03/04 00:09:41;;;;;;;11.07;4.78;;;;;;;7.37;70.06;101387.56;2054291;28;20464;-75
2022/03/04 00:11:04;;;;;;;7.72;3.70;;;;;;;7.34;70.18;101390.09;2054697;28;20035;-74
2022/03/04 00:12:25;;;;;;;5.10;2.72;;;;;;;7.27;70.06;101381.91;2066938;28;20050;-75
2022/03/04 00:13:48;;;;;;;6.70;2.97;;;;;;;7.15;70.05;101377.97;2061652;28;20097;-74
2022/03/04 00:15:10;;;;;;;7.38;3.72;;;;;;;7.09;70.43;101384.69;2060112;28;20058;-74
2022/03/04 00:16:32;;;;;;;9.32;4.32;;;;;;;7.08;70.35;101380.31;2051081;28;20047;-74
2022/03/04 00:17:55;;;;;;;6.03;3.92;;;;;;;7.11;70.66;101383.03;2051300;28;20050;-74
2022/03/04 00:19:18;;;;;;;5.75;3.10;;;;;;;7.17;70.47;101383.28;2066191;28;20075;-75
2022/03/04 00:20:40;;;;;;;8.40;3.90;;;;;;;7.22;70.31;101385.25;2056848;28;20642;-74
2022/03/04 00:22:03;;;;;;;6.75;3.47;;;;;;;7.25;70.25;101376.59;2061437;28;20507;-75
2022/03/04 00:23:26;;;;;;;5.22;3.38;;;;;;;7.28;70.01;101375.84;2061593;28;20497;-74
2022/03/04 00:24:50;;;;;;;7.22;3.90;;;;;;;7.28;69.95;101376.72;2056963;28;20054;-74
2022/03/04 00:26:13;;;;;;;13.50;7.75;;;;;;;7.24;70.01;101369.56;2058863;28;20443;-75
2022/03/04 00:27:35;;;;;;;9.50;5.53;;;;;;;7.22;69.92;101370.34;2053592;28;20104;-75
2022/03/04 00:28:58;;;;;;;9.85;5.45;;;;;;;7.24;70.15;101380.06;2065216;28;20133;-74
2022/03/04 00:30:21;;;;;;;8.57;3.88;;;;;;;7.27;70.18;101368.78;2069650;28;20049;-75
2022/03/04 00:31:43;;;;;;;3.78;2.53;;;;;;;7.30;70.07;101371.50;2056102;28;20078;-74
2022/03/04 00:33:06;;;;;;;6.57;3.13;;;;;;;7.28;70.13;101358.34;2056527;28;20046;-74
2022/03/04 00:34:27;;;;;;;9.10;3.05;;;;;;;7.28;70.19;101363.59;2059176;28;20043;-74
2022/03/04 00:35:50;;;;;;;4.32;2.70;;;;;;;7.29;70.18;101360.13;2057343;28;20566;-74
2022/03/04 00:37:13;;;;;;;6.75;3.67;;;;;;;7.28;70.12;101353.09;2067786;28;20042;-74
2022/03/04 00:38:34;;;;;;;10.25;5.00;;;;;;;7.28;70.20;101354.84;2061563;28;20145;-75
2022/03/04 00:39:58;;;;;;;7.65;3.65;;;;;;;7.29;70.06;101353.97;2066102;28;20516;-75
2022/03/04 00:41:21;;;;;;;6.15;3.00;;;;;;;7.27;70.08;101356.56;2055157;28;20097;-75
2022/03/04 00:42:44;;;;;;;5.40;2.95;;;;;;;7.26;70.24;101352.13;2075519;28;20037;-75
2022/03/04 00:44:06;;;;;;;6.78;2.85;;;;;;;7.27;70.23;101356.56;2067609;28;20069;-75
2022/03/04 00:45:28;;;;;;;6.05;2.30;;;;;;;7.28;70.28;101352.19;2053575;28;20578;-75
2022/03/04 00:46:50;;;;;;;6.55;3.10;;;;;;;7.30;70.41;101354.03;2075101;28;20057;-75
2022/03/04 00:48:12;;;;;;;4.60;2.08;;;;;;;7.31;70.33;101344.44;2067001;28;20054;-74
2022/03/04 00:49:35;;;;;;;5.47;2.15;;;;;;;7.32;70.44;101351.47;2069586;28;20046;-74
2022/03/04 00:50:57;;;;;;;5.45;2.72;;;;;;;7.33;70.41;101343.66;2059943;28;20046;-74
2022/03/04 00:52:19;;;;;;;4.50;2.53;;;;;;;7.35;70.47;101351.59;2061466;28;20096;-75
2022/03/04 00:53:42;;;;;;;3.20;1.35;;;;;;;7.35;70.29;101343.72;2053216;28;20042;-75
2022/03/04 00:55:07;;;;;;;6.30;3.08;;;;;;;7.37;70.32;101342.94;2063421;28;20137;-75
2022/03/04 00:56:30;;;;;;;2.97;1.55;;;;;;;7.37;70.40;101339.41;2060059;28;20117;-74
2022/03/04 00:57:52;;;;;;;4.40;2.38;;;;;;;7.39;70.41;101343.00;2059084;28;20066;-75
2022/03/04 00:59:14;;;;;;;7.10;3.05;;;;;;;7.40;70.62;101342.16;2056655;28;20381;-75
2022/03/04 01:00:38;;;;;;;6.78;1.80;;;;;;;7.40;70.54;101336.91;2069030;28;20053;-74
2022/03/04 01:01:59;;;;;;;5.00;2.50;;;;;;;7.41;70.61;101341.31;2056050;28;20110;-75
2022/03/04 01:03:22;;;;;;;4.13;1.90;;;;;;;7.43;70.45;101345.78;2065349;28;20131;-75
2022/03/04 01:04:44;;;;;;;5.85;3.42;;;;;;;7.46;70.65;101345.00;2053300;28;20453;-75
2022/03/04 01:06:08;;;;;;;4.65;2.13;;;;;;;7.48;70.54;101345.97;2065672;28;20042;-75
2022/03/04 01:07:30;;;;;;;5.30;2.80;;;;;;;7.49;70.48;101348.63;2061608;28;20585;-75
2022/03/04 01:08:53;;;;;;;6.22;3.45;;;;;;;7.51;70.51;101341.72;2067285;28;20053;-75
2022/03/04 01:10:17;;;;;;;7.60;2.60;;;;;;;7.54;70.30;101354.09;2068992;28;20038;-76
2022/03/04 01:11:40;;;;;;;6.03;2.38;;;;;;;7.53;70.29;101347.94;2072015;28;20145;-76
2022/03/04 01:13:02;;;;;;;4.80;2.45;;;;;;;7.55;70.25;101354.09;2063920;28;20042;-75
2022/03/04 01:14:25;;;;;;;9.88;4.85;;;;;;;7.58;70.10;101345.47;2062196;28;20038;-75
2022/03/04 01:15:46;;;;;;;7.88;3.38;;;;;;;7.57;70.23;101338.41;2065547;28;20054;-75
2022/03/04 01:17:09;;;;;;;3.58;2.13;;;;;;;7.58;70.34;101345.47;2058956;28;20121;-75
2022/03/04 01:18:32;;;;;;;5.07;2.70;;;;;;;7.62;70.37;101339.47;2066378;28;20129;-75
2022/03/04 01:19:54;;;;;;;2.95;1.95;;;;;;;7.64;70.49;101344.78;2069143;28;20076;-75
2022/03/04 01:21:15;;;;;;;3.75;2.33;;;;;;;7.66;70.46;101348.38;2070657;28;20034;-74
2022/03/04 01:22:38;;;;;;;4.22;2.58;;;;;;;7.68;70.28;101338.81;2055947;28;20121;-75
2022/03/04 01:23:59;;;;;;;4.85;2.83;;;;;;;7.68;70.27;101337.06;2059174;28;20404;-75
2022/03/04 01:25:24;;;;;;;5.95;2.30;;;;;;;7.71;70.30;101337.19;2064689;28;20054;-75
2022/03/04 01:26:46;;;;;;;4.03;2.25;;;;;;;7.71;70.26;101341.53;2065553;28;20042;-75
2022/03/04 01:28:09;;;;;;;6.07;2.85;;;;;;;7.71;70.45;101336.28;2068106;28;20133;-75
2022/03/04 01:29:30;;;;;;;5.15;2.05;;;;;;;7.73;70.38;101330.25;2084851;28;20044;-76
2022/03/04 01:30:53;;;;;;;3.35;1.98;;;;;;;7.72;70.45;101338.09;2076354;28;20058;-75
2022/03/04 01:32:16;;;;;;;4.30;2.30;;;;;;;7.71;70.54;101337.19;2068563;28;20041;-75
2022/03/04 01:33:37;;;;;;;3.85;2.13;;;;;;;7.74;70.76;101342.56;2069114;28;20042;-75
2022/03/04 01:35:00;;;;;;;4.30;1.98;;;;;;;7.74;70.63;101337.31;2070319;28;20050;-74
2022/03/04 01:36:22;;;;;;;3.03;2.10;;;;;;;7.76;70.71;101334.72;2068496;28;20566;-75
2022/03/04 01:37:45;;;;;;;5.10;2.25;;;;;;;7.77;70.73;101339.13;2061314;28;20102;-75
2022/03/04 01:39:07;;;;;;;6.05;2.70;;;;;;;7.77;70.87;101333.88;2055896;28;20133;-76
2022/03/04 01:40:30;;;;;;;4.40;2.20;;;;;;;7.78;70.75;101322.53;2063001;28;20446;-76
2022/03/04 01:41:53;;;;;;;5.53;2.75;;;;;;;7.77;70.55;101329.53;2058130;28;20497;-76
2022/03/04 01:43:16;;;;;;;4.68;2.38;;;;;;;7.78;70.64;101328.69;2061086;28;20082;-75
2022/03/04 01:44:39;;;;;;;5.60;2.80;;;;;;;7.80;70.75;101331.38;2077742;28;20554;-76
2022/03/04 01:46:11;;;;;;;4.20;2.90;;;;;;;7.80;70.59;101327.03;2061486;28;20088;-75
2022/03/04 01:47:34;;;;;;;6.68;2.88;;;;;;;7.80;70.61;101326.13;2069742;28;20042;-76
2022/03/04 01:48:58;;;;;;;4.80;2.33;;;;;;;7.80;70.80;101324.38;2059321;28;20035;-75
2022/03/04 01:50:19;;;;;;;5.68;2.50;;;;;;;7.81;70.81;101320.03;2064649;28;20118;-75
2022/03/04 01:51:42;;;;;;;3.83;2.13;;;;;;;7.81;70.79;101331.41;2073958;28;20096;-76
2022/03/04 01:53:05;;;;;;;5.35;2.45;;;;;;;7.84;70.81;101330.63;2072582;28;20475;-75
2022/03/04 01:54:27;;;;;;;6.00;2.25;;;;;;;7.83;70.89;101329.75;2053394;28;20198;-76
2022/03/04 01:55:51;;;;;;;3.80;2.00;;;;;;;7.85;70.80;101327.16;2061278;28;20563;-76
2022/03/04 01:57:12;;;;;;;5.88;2.92;;;;;;;7.84;71.01;101322.75;2059731;28;20096;-76
2022/03/04 01:58:35;;;;;;;6.03;2.95;;;;;;;7.84;70.92;101331.53;2058672;28;20093;-76
2022/03/04 01:59:58;;;;;;;3.75;2.00;;;;;;;7.85;71.13;101325.44;2061260;28;20388;-76
2022/03/04 02:01:21;;;;;;;5.70;2.50;;;;;;;7.85;71.09;101327.16;2061261;28;20061;-75
2022/03/04 02:02:44;;;;;;;5.50;2.85;;;;;;;7.88;71.14;101330.78;2064964;28;20054;-76
2022/03/04 02:04:07;;;;;;;2.65;1.45;;;;;;;7.87;71.21;101329.03;2062810;28;20623;-75
2022/03/04 02:05:29;;;;;;;5.45;2.72;;;;;;;7.86;71.18;101319.34;2054582;28;20050;-75
2022/03/04 02:06:52;;;;;;;4.82;2.45;;;;;;;7.87;71.06;101329.03;2075963;28;20172;-76
2022/03/04 02:08:13;;;;;;;5.15;2.65;;;;;;;7.89;71.17;101329.94;2065269;28;20622;-76
2022/03/04 02:09:36;;;;;;;6.68;2.47;;;;;;;7.88;71.11;101327.25;2066719;28;20045;-75
2022/03/04 02:11:01;;;;;;;6.32;2.58;;;;;;;7.89;71.03;101329.94;2060865;28;20100;-76
2022/03/04 02:12:23;;;;;;;4.15;1.85;;;;;;;7.88;71.21;101328.16;2060681;28;20058;-75
2022/03/04 02:13:46;;;;;;;4.38;2.00;;;;;;;7.89;71.05;101321.16;2062405;28;20089;-76
2022/03/04 02:15:10;;;;;;;4.30;2.25;;;;;;;7.91;71.13;101324.75;2065986;28;20373;-75
2022/03/04 02:16:38;;;;;;;4.68;2.03;;;;;;;7.92;71.17;101316.94;2062903;28;20050;-76
2022/03/04 02:17:59;;;;;;;4.28;1.80;;;;;;;7.92;71.33;101322.19;2063016;28;20078;-75
2022/03/04 02:19:23;;;;;;;5.18;1.63;;;;;;;7.95;71.40;101322.28;2062026;28;20668;-75
2022/03/04 02:20:47;;;;;;;4.22;2.05;;;;;;;7.97;71.38;101315.34;2063388;28;20077;-75
2022/03/04 02:22:11;;;;;;;3.67;2.20;;;;;;;8.03;71.45;101314.66;2062677;28;20065;-75
2022/03/04 02:23:33;;;;;;;4.25;2.33;;;;;;;8.06;71.51;101314.78;2067892;28;20061;-76
2022/03/04 02:24:54;;;;;;;4.15;2.40;;;;;;;8.11;71.38;101317.56;2057082;28;20386;-75
2022/03/04 02:26:17;;;;;;;5.95;3.05;;;;;;;8.13;71.36;101308.91;2076375;28;20053;-75
2022/03/04 02:27:40;;;;;;;3.10;1.65;;;;;;;8.16;71.32;101308.09;2068679;28;20050;-75
2022/03/04 02:29:02;;;;;;;4.70;2.15;;;;;;;8.18;71.59;101309.03;2070606;28;20509;-75
2022/03/04 02:30:24;;;;;;;6.95;2.63;;;;;;;8.21;71.31;101310.03;2054667;28;20047;-75
2022/03/04 02:31:46;;;;;;;7.50;2.33;;;;;;;8.23;71.52;101315.34;2051638;28;20141;-75
2022/03/04 02:33:08;;;;;;;4.07;1.88;;;;;;;8.23;71.54;101313.63;2060106;28;20590;-76
2022/03/04 02:34:31;;;;;;;2.85;1.88;;;;;;;8.24;71.48;101311.88;2046387;29;20128;-75
2022/03/04 02:35:53;;;;;;;3.75;1.52;;;;;;;8.26;71.77;101316.38;2056543;28;20039;-75
2022/03/04 02:37:18;;;;;;;5.15;2.15;;;;;;;8.25;71.57;101306.69;2060573;28;20109;-75
2022/03/04 02:38:42;;;;;;;1.98;1.45;;;;;;;8.27;71.47;101314.63;2057534;28;20047;-75
2022/03/04 02:40:05;;;;;;;5.32;2.50;;;;;;;8.25;71.64;101308.41;2060009;28;20548;-75
2022/03/04 02:41:28;;;;;;;5.75;2.22;;;;;;;8.25;71.58;101311.94;2054012;28;20483;-75
2022/03/04 02:42:50;;;;;;;2.88;1.67;;;;;;;8.26;71.53;101319.00;2054549;28;20503;-75
2022/03/04 02:44:13;;;;;;;3.45;2.08;;;;;;;8.28;71.73;101313.75;2055952;28;20039;-76
2022/03/04 02:45:36;;;;;;;3.10;1.67;;;;;;;8.26;71.71;101308.47;2062104;28;20653;-76
2022/03/04 02:46:58;;;;;;;5.30;2.28;;;;;;;8.27;71.86;101304.09;2062512;28;20471;-76
2022/03/04 02:48:20;;;;;;;5.43;2.53;;;;;;;8.27;71.91;101301.47;2062359;28;20471;-76
2022/03/04 02:49:42;;;;;;;5.20;1.65;;;;;;;8.28;71.90;101295.34;2053966;28;20081;-76
2022/03/04 02:51:04;;;;;;;1.48;1.38;;;;;;;8.29;71.84;101286.63;2055783;28;20475;-75
2022/03/04 02:52:27;;;;;;;5.57;2.22;;;;;;;8.31;72.02;101288.50;2067985;28;20053;-76
2022/03/04 02:53:51;;;;;;;3.33;1.65;;;;;;;8.30;71.90;101280.53;2060340;28;20155;-76
2022/03/04 02:55:13;;;;;;;3.78;1.63;;;;;;;8.32;71.87;101292.94;2051750;28;20046;-77
2022/03/04 02:56:35;;;;;;;2.38;1.85;;;;;;;8.32;72.00;101281.50;2059524;28;20047;-76
2022/03/04 02:57:57;;;;;;;2.75;1.52;;;;;;;8.32;71.96;101279.78;2061757;28;20136;-76
2022/03/04 02:59:18;;;;;;;6.10;2.80;;;;;;;8.33;71.81;101275.41;2062231;28;20046;-76
2022/03/04 03:00:41;;;;;;;3.17;1.05;;;;;;;8.34;71.99;101277.16;2052269;28;20154;-76
2022/03/04 03:02:04;;;;;;;7.25;1.88;;;;;;;8.36;72.14;101273.75;2051888;28;20053;-76
2022/03/04 03:03:27;;;;;;;4.40;1.63;;;;;;;8.37;72.09;101280.81;2051623;28;20055;-76
2022/03/04 03:04:49;;;;;;;4.50;1.70;;;;;;;8.37;71.83;101274.66;2067530;28;20049;-76
2022/03/04 03:06:12;;;;;;;2.33;1.75;;;;;;;8.36;71.99;101272.88;2059434;28;20121;-76
2022/03/04 03:07:36;;;;;;;4.88;2.00;;;;;;;8.36;72.08;101268.50;2067532;28;20054;-76
2022/03/04 03:08:59;;;;;;;4.20;2.30;;;;;;;8.35;71.96;101271.06;2063188;28;20050;-76
2022/03/04 03:10:20;;;;;;;7.97;3.33;;;;;;;8.35;72.00;101269.34;2048718;28;20528;-76
2022/03/04 03:11:43;;;;;;;4.68;2.35;;;;;;;8.34;72.11;101264.91;2059595;28;20049;-76
2022/03/04 03:13:06;;;;;;;5.80;2.10;;;;;;;8.35;72.36;101268.44;2063325;28;20145;-76
2022/03/04 03:14:28;;;;;;;5.05;2.58;;;;;;;8.35;72.16;101269.34;2053782;28;20129;-77
2022/03/04 03:15:50;;;;;;;7.50;3.03;;;;;;;8.36;72.05;101267.59;2055509;28;20050;-76
2022/03/04 03:17:13;;;;;;;5.05;2.60;;;;;;;8.36;72.21;101265.88;2046282;29;20637;-76
2022/03/04 03:18:34;;;;;;;6.38;2.45;;;;;;;8.34;72.04;101264.91;2065398;28;20079;-76
2022/03/04 03:19:56;;;;;;;4.43;2.58;;;;;;;8.33;71.94;101260.53;2064420;28;20053;-77
2022/03/04 03:21:19;;;;;;;5.95;2.78;;;;;;;8.32;71.88;101260.47;2055913;28;20093;-76
2022/03/04 03:22:44;;;;;;;4.53;2.45;;;;;;;8.32;71.76;101266.63;2061913;28;20034;-76
2022/03/04 03:24:07;;;;;;;5.72;2.53;;;;;;;8.29;71.95;101265.56;2061920;28;20493;-76
2022/03/04 03:25:30;;;;;;;4.50;1.83;;;;;;;8.27;71.69;101259.41;2061934;28;20050;-76
2022/03/04 03:26:53;;;;;;;3.45;1.48;;;;;;;8.23;71.92;101250.50;2058295;28;20574;-76
2022/03/04 03:28:16;;;;;;;2.40;1.13;;;;;;;8.23;71.83;101254.84;2059847;28;20093;-76
2022/03/04 03:29:38;;;;;;;4.65;2.60;;;;;;;8.21;72.04;101249.53;2052590;28;20051;-76
2022/03/04 03:31:01;;;;;;;3.03;1.55;;;;;;;8.21;71.94;101246.91;2061777;28;20046;-76
2022/03/04 03:32:23;;;;;;;2.95;1.85;;;;;;;8.21;71.92;101243.38;2062048;28;20066;-77
2022/03/04 03:33:45;;;;;;;3.00;1.38;;;;;;;8.21;71.86;101248.66;2064623;28;20631;-76
2022/03/04 03:35:09;;;;;;;5.82;2.20;;;;;;;8.21;71.91;101246.00;2064209;28;20042;-76
2022/03/04 03:36:31;;;;;;;6.88;2.25;;;;;;;8.20;72.12;101241.63;2063375;28;20054;-76
2022/03/04 03:37:54;;;;;;;4.57;1.65;;;;;;;8.23;72.20;101244.34;2045938;29;20217;-76
2022/03/04 03:39:17;;;;;;;4.03;2.08;;;;;;;8.22;71.97;101247.81;2049030;28;20043;-76
2022/03/04 03:40:40;;;;;;;6.70;3.40;;;;;;;8.24;72.04;101249.66;2063022;28;20407;-76
2022/03/04 03:42:02;;;;;;;6.18;3.17;;;;;;;8.25;71.85;101247.94;2068943;28;20533;-75
2022/03/04 03:43:23;;;;;;;6.03;2.60;;;;;;;8.25;71.92;101246.19;2070116;28;20046;-76
2022/03/04 03:44:46;;;;;;;4.88;2.38;;;;;;;8.25;71.82;101247.94;2061865;28;20137;-76
2022/03/04 03:46:09;;;;;;;4.75;2.05;;;;;;;8.25;71.95;101243.56;2059292;28;20046;-76
2022/03/04 03:47:31;;;;;;;4.63;2.42;;;;;;;8.25;71.81;101251.44;2059618;28;20108;-76
2022/03/04 03:48:54;;;;;;;3.95;1.88;;;;;;;8.25;72.03;101243.56;2071273;28;20392;-76
2022/03/04 03:50:17;;;;;;;7.03;2.83;;;;;;;8.26;71.79;101247.97;2061888;28;20041;-75
2022/03/04 03:51:40;;;;;;;3.75;1.85;;;;;;;8.25;71.82;101251.44;2058090;28;20484;-76
2022/03/04 03:53:04;;;;;;;6.20;2.80;;;;;;;8.26;71.98;101255.88;2061996;28;20438;-76
2022/03/04 03:54:27;;;;;;;5.15;2.72;;;;;;;8.25;72.00;101255.81;2069569;28;20428;-76
2022/03/04 03:55:48;;;;;;;3.17;1.83;;;;;;;8.26;72.15;101261.13;2076267;28;20071;-76
2022/03/04 03:57:10;;;;;;;3.80;2.22;;;;;;;8.27;72.00;101259.41;2064390;28;20117;-76
2022/03/04 03:58:32;;;;;;;7.10;2.38;;;;;;;8.28;72.17;101263.78;2064049;28;20046;-76
2022/03/04 03:59:54;;;;;;;3.72;2.25;;;;;;;8.31;72.02;101263.94;2069838;28;20532;-76
2022/03/04 04:01:16;;;;;;;5.82;2.20;;;;;;;8.33;72.11;101257.91;2057025;28;20508;-76
2022/03/04 04:02:38;;;;;;;2.05;1.00;;;;;;;8.35;72.04;101263.19;2051124;28;20090;-76
2022/03/04 04:04:01;;;;;;;3.33;1.83;;;;;;;8.37;72.08;101266.75;2059440;28;20038;-77
2022/03/04 04:05:22;;;;;;;4.00;1.90;;;;;;;8.39;72.26;101270.34;2067003;28;20041;-77
2022/03/04 04:06:45;;;;;;;7.97;2.53;;;;;;;8.42;72.27;101267.78;2068556;28;20050;-77
2022/03/04 04:08:09;;;;;;;4.63;2.33;;;;;;;8.44;72.22;101268.75;2062027;28;20106;-77
2022/03/04 04:09:31;;;;;;;4.45;2.28;;;;;;;8.43;72.14;101269.59;2057646;28;20042;-76
2022/03/04 04:10:54;;;;;;;1.73;1.05;;;;;;;8.42;72.23;101273.06;2058795;28;20483;-77
2022/03/04 04:12:17;;;;;;;4.95;2.10;;;;;;;8.43;72.21;101269.59;2056193;28;20055;-77
2022/03/04 04:13:38;;;;;;;1.58;0.95;;;;;;;8.44;72.36;101273.13;2060780;28;20050;-77
2022/03/04 04:15:00;;;;;;;11.20;2.83;;;;;;;8.45;72.17;101267.00;2065164;28;20528;-77
2022/03/04 04:16:22;;;;;;;4.53;1.65;;;;;;;8.45;72.17;101262.66;2058957;28;20061;-76
2022/03/04 04:17:44;;;;;;;5.07;1.58;;;;;;;8.46;72.32;101268.81;2057056;28;20142;-77
2022/03/04 04:19:07;;;;;;;3.38;1.42;;;;;;;8.47;72.21;101267.97;2051162;28;20054;-77
2022/03/04 04:20:29;;;;;;;3.80;1.88;;;;;;;8.49;72.18;101258.38;2059110;28;20188;-77
2022/03/04 04:21:53;;;;;;;2.78;1.63;;;;;;;8.52;72.37;101264.63;2069546;28;20057;-77
2022/03/04 04:23:16;;;;;;;4.80;2.20;;;;;;;8.57;72.51;101262.13;2056650;28;20051;-77
2022/03/04 04:24:38;;;;;;;3.13;1.70;;;;;;;8.60;72.33;101268.38;2056648;28;20636;-77
2022/03/04 04:26:00;;;;;;;3.05;1.80;;;;;;;8.65;72.32;101260.66;2069890;28;20497;-77
2022/03/04 04:27:22;;;;;;;5.75;2.50;;;;;;;8.68;72.50;101259.00;2053742;28;20054;-77
2022/03/04 04:28:45;;;;;;;2.95;1.42;;;;;;;8.71;72.26;101259.09;2056482;28;20050;-76
2022/03/04 04:30:09;;;;;;;6.10;2.42;;;;;;;8.79;72.45;101257.56;2060207;28;20073;-77
2022/03/04 04:31:32;;;;;;;6.93;2.70;;;;;;;8.83;72.53;101255.94;2063833;28;20052;-77
2022/03/04 04:32:55;;;;;;;4.13;1.92;;;;;;;8.87;72.55;101257.81;2061754;28;20184;-77
2022/03/04 04:34:17;;;;;;;4.63;2.20;;;;;;;8.91;72.38;101254.44;2054810;28;20655;-77
2022/03/04 04:35:40;;;;;;;3.60;2.28;;;;;;;8.96;72.24;101255.47;2061616;28;20059;-76
2022/03/04 04:37:02;;;;;;;2.70;1.60;;;;;;;9.00;72.26;101253.81;2066859;28;20508;-76
2022/03/04 04:38:27;;;;;;;3.60;1.58;;;;;;;9.05;72.31;101244.31;2055869;28;20046;-77
2022/03/04 04:39:48;;;;;;;3.58;1.70;;;;;;;9.09;72.03;101254.97;2061850;28;20140;-77
2022/03/04 04:41:11;;;;;;;3.05;1.65;;;;;;;9.12;72.09;101255.06;2061243;28;20058;-77
2022/03/04 04:42:33;;;;;;;3.80;1.95;;;;;;;9.17;72.01;101252.56;2053494;28;20101;-76
2022/03/04 04:43:56;;;;;;;6.63;2.55;;;;;;;9.20;71.96;101250.91;2067251;28;21832;-76
2022/03/04 04:45:17;;;;;;;5.45;3.10;;;;;;;9.24;71.74;101249.28;2060809;28;20120;-76
2022/03/04 04:46:40;;;;;;;6.55;4.13;;;;;;;9.28;71.78;101252.88;2066970;28;20125;-76
2022/03/04 04:48:03;;;;;;;12.40;4.50;;;;;;;9.30;71.69;101240.66;2063912;28;20535;-76
2022/03/04 04:49:26;;;;;;;5.53;3.35;;;;;;;9.32;71.56;101242.47;2069331;28;20042;-76
2022/03/04 04:50:49;;;;;;;10.38;6.28;;;;;;;9.34;71.71;101242.50;2053270;28;20097;-76
2022/03/04 04:52:11;;;;;;;11.65;5.13;;;;;;;9.37;71.57;101246.13;2056553;28;20053;-76
2022/03/04 04:53:35;;;;;;;8.52;3.85;;;;;;;9.41;71.48;101258.53;2054101;28;20043;-76
2022/03/04 04:54:58;;;;;;;6.43;3.35;;;;;;;9.44;71.34;101260.38;2067558;28;20050;-76
2022/03/04 04:56:20;;;;;;;5.53;2.97;;;;;;;9.47;71.25;101255.19;2061338;28;20496;-77
2022/03/04 04:57:43;;;;;;;6.25;2.60;;;;;;;9.49;71.23;101254.38;2066999;28;20509;-76
2022/03/04 04:59:05;;;;;;;8.07;3.80;;;;;;;9.53;71.33;101252.69;2061428;28;20111;-76
2022/03/04 05:00:27;;;;;;;6.55;2.65;;;;;;;9.55;71.19;101262.44;2060756;28;20460;-78
2022/03/04 05:01:49;;;;;;;3.38;1.90;;;;;;;9.59;71.21;101260.78;2061308;28;20214;-77
2022/03/04 05:03:12;;;;;;;5.97;2.80;;;;;;;9.64;71.25;101260.94;2069506;28;20055;-77
2022/03/04 05:04:33;;;;;;;4.93;2.55;;;;;;;9.68;71.31;101262.78;2069618;28;20530;-77
2022/03/04 05:05:57;;;;;;;5.88;2.50;;;;;;;9.69;71.00;101260.19;2061095;28;20050;-77
2022/03/04 05:07:19;;;;;;;6.15;3.67;;;;;;;9.71;70.95;101262.88;2067357;28;20062;-77
2022/03/04 05:08:43;;;;;;;12.13;6.25;;;;;;;9.75;70.77;101263.00;2061615;28;20137;-77
2022/03/04 05:10:06;;;;;;;11.65;8.20;;;;;;;9.76;70.83;101272.69;2061481;28;20038;-77
2022/03/04 05:11:29;;;;;;;10.35;5.70;;;;;;;9.78;70.58;101260.41;2064125;28;20089;-77
2022/03/04 05:12:50;;;;;;;16.05;9.38;;;;;;;9.80;70.86;101265.75;2061401;28;20046;-77
2022/03/04 05:14:13;;;;;;;9.27;5.78;;;;;;;9.81;70.73;101262.25;2065335;28;20117;-77
2022/03/04 05:15:34;;;;;;;7.28;4.07;;;;;;;9.82;70.78;101257.03;2058603;28;20058;-77
2022/03/04 05:16:57;;;;;;;10.02;5.63;;;;;;;9.85;70.81;101266.75;2066820;28;20054;-77
2022/03/04 05:18:18;;;;;;;7.05;4.32;;;;;;;9.86;70.92;101258.00;2056004;28;20517;-77
2022/03/04 05:19:41;;;;;;;11.23;5.18;;;;;;;9.88;70.71;101264.22;2060739;28;20058;-77
2022/03/04 05:21:04;;;;;;;9.38;4.85;;;;;;;9.90;70.79;101270.44;2057252;28;20061;-77
2022/03/04 05:22:26;;;;;;;10.35;6.20;;;;;;;9.92;70.65;101263.41;2067066;28;20407;-76
2022/03/04 05:24:02;;;;;;;14.55;7.75;;;;;;;9.95;70.68;101266.16;2060977;28;20530;-76
2022/03/04 05:25:25;;;;;;;19.45;9.73;;;;;;;9.96;70.70;101275.84;2071178;28;20049;-77
2022/03/04 05:26:48;;;;;;;23.63;13.10;;;;;;;9.99;70.42;101268.91;2061746;28;20050;-77
2022/03/04 05:28:09;;;;;;;17.02;9.85;;;;;;;10.03;70.48;101261.09;2055002;28;20035;-77
2022/03/04 05:29:31;;;;;;;13.95;7.40;;;;;;;10.05;70.16;101262.00;2055989;28;20043;-77
2022/03/04 05:30:54;;;;;;;10.25;5.65;;;;;;;10.10;70.39;101263.03;2065787;28;20583;-77
2022/03/04 05:32:17;;;;;;;6.13;3.70;;;;;;;10.12;70.28;101263.94;2069384;28;20177;-77
2022/03/04 05:33:40;;;;;;;7.28;3.90;;;;;;;10.15;70.29;101258.75;2053720;28;20047;-77
2022/03/04 05:35:02;;;;;;;6.95;4.05;;;;;;;10.18;70.25;101257.09;2064265;28;20617;-78
2022/03/04 05:36:26;;;;;;;6.47;3.55;;;;;;;10.21;70.06;101256.31;2062426;28;20527;-77
2022/03/04 05:37:47;;;;;;;7.00;4.03;;;;;;;10.23;70.13;101266.06;2062615;28;20053;-77
2022/03/04 05:39:11;;;;;;;7.22;3.50;;;;;;;10.28;70.09;101253.84;2064612;28;20129;-77
2022/03/04 05:40:32;;;;;;;8.07;3.50;;;;;;;10.30;70.02;101251.25;2062131;28;20512;-77
2022/03/04 05:41:55;;;;;;;4.50;2.13;;;;;;;10.32;69.95;101253.06;2061753;28;20070;-77
2022/03/04 05:43:17;;;;;;;4.68;1.92;;;;;;;10.37;69.83;101253.19;2067466;28;20046;-77
2022/03/04 05:44:40;;;;;;;3.13;2.10;;;;;;;10.43;69.60;101249.81;2070696;28;20463;-77
2022/03/04 05:46:01;;;;;;;3.65;2.05;;;;;;;10.47;69.63;101251.66;2070670;28;20050;-78
2022/03/04 05:47:24;;;;;;;5.45;2.63;;;;;;;10.53;69.52;101250.06;2054754;28;20141;-78
2022/03/04 05:48:47;;;;;;;2.88;1.73;;;;;;;10.56;69.41;101255.41;2067296;28;20073;-77
2022/03/04 05:50:11;;;;;;;5.32;2.30;;;;;;;10.60;69.57;101257.25;2057739;28;20435;-77
2022/03/04 05:51:33;;;;;;;3.17;1.83;;;;;;;10.62;69.43;101259.94;2070794;28;20107;-77
2022/03/04 05:52:56;;;;;;;2.95;1.55;;;;;;;10.63;69.39;101253.81;2056920;28;20504;-77
2022/03/04 05:54:20;;;;;;;4.60;2.13;;;;;;;10.66;69.47;101254.75;2069477;28;20050;-77
2022/03/04 05:55:43;;;;;;;3.22;1.92;;;;;;;10.67;69.41;101253.00;2062510;28;20496;-77
2022/03/04 05:57:05;;;;;;;7.03;2.53;;;;;;;10.68;69.40;101254.81;2062699;28;20084;-77
2022/03/04 05:58:28;;;;;;;4.65;2.65;;;;;;;10.69;69.43;101260.13;2062879;28;20050;-77
2022/03/04 05:59:50;;;;;;;4.95;2.40;;;;;;;10.68;69.38;101254.81;2072388;28;20077;-78
2022/03/04 06:01:13;;;;;;;5.15;2.42;;;;;;;10.66;69.32;101254.75;2077458;28;20049;-77
2022/03/04 06:02:35;;;;;;;7.95;4.00;;;;;;;10.67;69.36;101259.19;2068154;28;20054;-77
2022/03/04 06:03:58;;;;;;;13.98;7.15;;;;;;;10.66;69.58;101259.16;2076139;28;20159;-77
2022/03/04 06:05:21;;;;;;;21.73;12.85;;;;;;;10.65;69.47;101255.59;2057099;28;20047;-77
2022/03/04 06:06:44;;;;;;;27.83;14.32;;;;;;;10.65;69.49;101267.91;2057750;28;20547;-77
2022/03/04 06:08:06;;;;;;;23.83;13.40;;;;;;;10.64;69.58;101264.38;2060225;28;20104;-76
2022/03/04 06:09:31;;;;;;;43.95;24.63;;;;;;;10.66;69.82;101267.97;2066606;28;20053;-77
2022/03/04 06:10:54;;;;;;;39.58;25.90;;;;;;;10.68;69.80;101265.38;2071100;28;20045;-78
2022/03/04 06:12:16;;;;;;;24.30;16.02;;;;;;;10.69;69.86;101273.31;2070732;28;20137;-77
2022/03/04 06:13:38;;;;;;;21.52;11.68;;;;;;;10.75;69.97;101268.19;2073183;28;20493;-76
2022/03/04 06:15:01;;;;;;;11.27;6.15;;;;;;;10.89;69.96;101265.84;2071212;28;20042;-77
2022/03/04 06:16:23;;;;;;;12.02;5.70;;;;;;;11.05;69.70;101273.25;2062592;28;20104;-77
2022/03/04 06:17:48;;;;;;;7.00;4.05;;;;;;;11.35;69.67;101270.38;2061082;28;20062;-77
2022/03/04 06:19:11;;;;;;;6.95;3.10;;;;;;;11.48;69.11;101268.88;2065470;28;20037;-77
2022/03/04 06:20:34;;;;;;;5.13;2.90;;;;;;;11.47;68.50;101256.50;2065267;28;20058;-77
2022/03/04 06:21:56;;;;;;;5.35;3.20;;;;;;;11.49;68.34;101266.22;2054500;28;20046;-77
2022/03/04 06:23:19;;;;;;;3.10;1.75;;;;;;;11.53;68.06;101262.81;2048866;28;20054;-77
2022/03/04 06:24:42;;;;;;;7.53;2.72;;;;;;;11.57;67.66;101255.81;2065620;28;20046;-77
2022/03/04 06:26:04;;;;;;;8.23;1.88;;;;;;;11.59;67.54;101262.03;2073701;28;20133;-77
2022/03/04 06:27:26;;;;;;;6.85;2.88;;;;;;;11.69;67.41;101260.44;2070075;28;20037;-77
2022/03/04 06:28:49;;;;;;;3.67;2.22;;;;;;;11.73;67.38;101263.19;2068948;28;20054;-77